sensor_id;sensor_type;location;lat;lon;timestamp;pressure;altitude;pressure_sealevel;temperature;humidity
19086;BME280;9675;51.538;6.728;2023-11-19T00:02:20;100610.91;;;10.23;100.00
19086;BME280;9675;51.538;6.728;2023-11-19T00:04:47;100596.50;;;10.27;100.00
19086;BME280;9675;51.538;6.728;2023-11-19T00:07:14;100605.19;;;10.29;100.00
19086;BME280;9675;51.538;6.728;2023-11-19T00:09:42;100591.50;;;10.30;100.00
19086;BME280;9675;51.538;6.728;2023-11-19T00:12:09;100594.13;;;10.32;100.00
19086;BME280;9675;51.538;6.728;2023-11-19T00:14:36;100596.78;;;10.33;100.00
19086;BME280;9675;51.538;6.728;2023-11-19T00:17:04;100594.38;;;10.36;100.00
19086;BME280;9675;51.538;6.728;2023-11-19T00:19:31;100588.38;;;10.37;100.00
19086;BME280;9675;51.538;6.728;2023-11-19T00:21:58;100591.94;;;10.39;100.00
19086;BME280;9675;51.538;6.728;2023-11-19T00:24:28;100589.44;;;10.41;100.00
19086;BME280;9675;51.538;6.728;2023-11-19T00:26:56;100593.81;;;10.43;100.00
19086;BME280;9675;51.538;6.728;2023-11-19T00:29:23;100573.22;;;10.43;100.00
19086;BME280;9675;51.538;6.728;2023-11-19T00:31:50;100572.44;;;10.44;100.00
19086;BME280;9675;51.538;6.728;2023-11-19T00:34:19;100571.63;;;10.45;100.00
19086;BME280;9675;51.538;6.728;2023-11-19T00:36:47;100567.41;;;10.47;100.00
19086;BME280;9675;51.538;6.728;2023-11-19T00:39:15;100561.66;;;10.53;100.00
19086;BME280;9675;51.538;6.728;2023-11-19T00:41:43;100550.56;;;10.54;100.00
19086;BME280;9675;51.538;6.728;2023-11-19T00:44:12;100562.69;;;10.56;100.00
19086;BME280;9675;51.538;6.728;2023-11-19T00:46:39;100562.00;;;10.60;100.00
19086;BME280;9675;51.538;6.728;2023-11-19T00:49:06;100551.03;;;10.64;100.00
19086;BME280;9675;51.538;6.728;2023-11-19T00:51:34;100550.31;;;10.67;100.00
19086;BME280;9675;51.538;6.728;2023-11-19T00:54:01;100540.19;;;10.72;100.00
19086;BME280;9675;51.538;6.728;2023-11-19T00:56:28;100538.56;;;10.74;100.00
19086;BME280;9675;51.538;6.728;2023-11-19T00:58:55;100539.44;;;10.74;100.00
19086;BME280;9675;51.538;6.728;2023-11-19T01:01:22;100536.94;;;10.76;100.00
19086;BME280;9675;51.538;6.728;2023-11-19T01:03:49;100542.22;;;10.79;100.00
19086;BME280;9675;51.538;6.728;2023-11-19T01:06:27;100550.91;;;10.81;100.00
19086;BME280;9675;51.538;6.728;2023-11-19T01:08:56;100543.25;;;10.82;100.00
19086;BME280;9675;51.538;6.728;2023-11-19T01:11:25;100548.50;;;10.85;100.00
19086;BME280;9675;51.538;6.728;2023-11-19T01:13:52;100538.28;;;10.87;100.00
19086;BME280;9675;51.538;6.728;2023-11-19T01:16:20;100537.47;;;10.88;100.00
19086;BME280;9675;51.538;6.728;2023-11-19T01:18:48;100543.81;;;10.96;100.00
19086;BME280;9675;51.538;6.728;2023-11-19T01:21:15;100550.88;;;11.00;100.00
19086;BME280;9675;51.538;6.728;2023-11-19T01:23:42;100548.28;;;11.00;100.00
19086;BME280;9675;51.538;6.728;2023-11-19T01:26:12;100556.09;;;11.01;100.00
19086;BME280;9675;51.538;6.728;2023-11-19T01:28:39;100553.59;;;11.03;100.00
19086;BME280;9675;51.538;6.728;2023-11-19T01:31:10;100556.28;;;11.06;100.00
19086;BME280;9675;51.538;6.728;2023-11-19T01:33:38;100558.84;;;11.06;100.00
19086;BME280;9675;51.538;6.728;2023-11-19T01:36:06;100558.94;;;11.07;100.00
19086;BME280;9675;51.538;6.728;2023-11-19T01:38:34;100558.13;;;11.08;100.00
19086;BME280;9675;51.538;6.728;2023-11-19T01:41:01;100549.69;;;11.13;100.00
19086;BME280;9675;51.538;6.728;2023-11-19T01:43:35;100541.16;;;11.14;100.00
19086;BME280;9675;51.538;6.728;2023-11-19T01:46:05;100545.56;;;11.16;100.00
19086;BME280;9675;51.538;6.728;2023-11-19T01:48:34;100537.13;;;11.20;100.00
19086;BME280;9675;51.538;6.728;2023-11-19T01:51:03;100541.63;;;11.24;100.00
19086;BME280;9675;51.538;6.728;2023-11-19T01:53:31;100544.19;;;11.24;100.00
19086;BME280;9675;51.538;6.728;2023-11-19T01:56:00;100530.59;;;11.28;100.00
19086;BME280;9675;51.538;6.728;2023-11-19T01:58:28;100531.53;;;11.30;100.00
19086;BME280;9675;51.538;6.728;2023-11-19T02:00:58;100530.72;;;11.31;100.00
19086;BME280;9675;51.538;6.728;2023-11-19T02:03:26;100528.22;;;11.33;100.00
19086;BME280;9675;51.538;6.728;2023-11-19T02:05:55;100513.75;;;11.36;100.00
19086;BME280;9675;51.538;6.728;2023-11-19T02:08:22;100497.53;;;11.39;100.00
19086;BME280;9675;51.538;6.728;2023-11-19T02:10:49;100496.75;;;11.41;100.00
19086;BME280;9675;51.538;6.728;2023-11-19T02:13:17;100489.84;;;11.40;100.00
19086;BME280;9675;51.538;6.728;2023-11-19T02:15:44;100493.38;;;11.42;100.00
19086;BME280;9675;51.538;6.728;2023-11-19T02:18:20;100503.69;;;11.42;100.00
19086;BME280;9675;51.538;6.728;2023-11-19T02:20:48;100508.03;;;11.43;100.00
19086;BME280;9675;51.538;6.728;2023-11-19T02:23:16;100503.75;;;11.44;100.00
19086;BME280;9675;51.538;6.728;2023-11-19T02:26:02;100496.84;;;11.43;100.00
19086;BME280;9675;51.538;6.728;2023-11-19T02:28:31;100491.75;;;11.44;100.00
19086;BME280;9675;51.538;6.728;2023-11-19T02:30:58;100479.78;;;11.46;100.00
19086;BME280;9675;51.538;6.728;2023-11-19T02:33:25;100486.72;;;11.47;100.00
19086;BME280;9675;51.538;6.728;2023-11-19T02:35:52;100499.59;;;11.47;100.00
19086;BME280;9675;51.538;6.728;2023-11-19T02:38:19;100508.28;;;11.49;100.00
19086;BME280;9675;51.538;6.728;2023-11-19T02:40:47;100496.28;;;11.50;100.00
19086;BME280;9675;51.538;6.728;2023-11-19T02:43:15;100491.13;;;11.50;100.00
19086;BME280;9675;51.538;6.728;2023-11-19T02:45:43;100486.81;;;11.50;100.00
19086;BME280;9675;51.538;6.728;2023-11-19T02:48:11;100491.16;;;11.51;100.00
19086;BME280;9675;51.538;6.728;2023-11-19T02:50:39;100477.38;;;11.51;100.00
19086;BME280;9675;51.538;6.728;2023-11-19T02:53:07;100473.09;;;11.51;100.00
19086;BME280;9675;51.538;6.728;2023-11-19T02:55:34;100478.50;;;11.58;100.00
19086;BME280;9675;51.538;6.728;2023-11-19T02:58:04;100461.28;;;11.57;100.00
19086;BME280;9675;51.538;6.728;2023-11-19T03:00:40;100465.63;;;11.58;100.00
19086;BME280;9675;51.538;6.728;2023-11-19T03:03:15;100473.34;;;11.58;100.00
19086;BME280;9675;51.538;6.728;2023-11-19T03:05:46;100469.16;;;11.60;100.00
19086;BME280;9675;51.538;6.728;2023-11-19T03:08:14;100475.13;;;11.59;100.00
19086;BME280;9675;51.538;6.728;2023-11-19T03:10:41;100482.03;;;11.60;100.00
19086;BME280;9675;51.538;6.728;2023-11-19T03:13:12;100465.72;;;11.61;100.00
19086;BME280;9675;51.538;6.728;2023-11-19T03:15:41;100460.56;;;11.61;100.00
19086;BME280;9675;51.538;6.728;2023-11-19T03:18:08;100472.72;;;11.63;100.00
19086;BME280;9675;51.538;6.728;2023-11-19T03:20:36;100477.00;;;11.63;100.00
19086;BME280;9675;51.538;6.728;2023-11-19T03:23:03;100468.44;;;11.64;100.00
19086;BME280;9675;51.538;6.728;2023-11-19T03:25:31;100479.66;;;11.64;100.00
19086;BME280;9675;51.538;6.728;2023-11-19T03:28:00;100483.91;;;11.64;100.00
19086;BME280;9675;51.538;6.728;2023-11-19T03:30:28;100471.84;;;11.63;100.00
19086;BME280;9675;51.538;6.728;2023-11-19T03:32:56;100475.22;;;11.62;100.00
19086;BME280;9675;51.538;6.728;2023-11-19T03:35:24;100475.13;;;11.59;100.00
19086;BME280;9675;51.538;6.728;2023-11-19T03:37:52;100477.63;;;11.57;100.00
19086;BME280;9675;51.538;6.728;2023-11-19T03:40:19;100478.59;;;11.59;100.00
19086;BME280;9675;51.538;6.728;2023-11-19T03:42:46;100480.13;;;11.56;100.00
19086;BME280;9675;51.538;6.728;2023-11-19T03:45:14;100491.34;;;11.56;100.00
19086;BME280;9675;51.538;6.728;2023-11-19T03:47:41;100488.72;;;11.55;100.00
19086;BME280;9675;51.538;6.728;2023-11-19T03:50:09;100487.03;;;11.55;100.00
19086;BME280;9675;51.538;6.728;2023-11-19T03:52:36;100494.63;;;11.52;100.00
19086;BME280;9675;51.538;6.728;2023-11-19T03:55:06;100492.13;;;11.54;100.00
19086;BME280;9675;51.538;6.728;2023-11-19T03:57:34;100486.88;;;11.52;100.00
19086;BME280;9675;51.538;6.728;2023-11-19T04:00:01;100491.31;;;11.55;100.00
19086;BME280;9675;51.538;6.728;2023-11-19T04:02:34;100486.97;;;11.54;100.00
19086;BME280;9675;51.538;6.728;2023-11-19T04:05:01;100491.22;;;11.53;100.00
19086;BME280;9675;51.538;6.728;2023-11-19T04:07:28;100494.56;;;11.50;100.00
19086;BME280;9675;51.538;6.728;2023-11-19T04:09:55;100473.06;;;11.50;100.00
19086;BME280;9675;51.538;6.728;2023-11-19T04:12:24;100481.56;;;11.47;100.00
19086;BME280;9675;51.538;6.728;2023-11-19T04:14:51;100484.03;;;11.44;100.00
19086;BME280;9675;51.538;6.728;2023-11-19T04:17:18;100495.25;;;11.46;100.00
19086;BME280;9675;51.538;6.728;2023-11-19T04:19:45;100494.38;;;11.46;100.00
19086;BME280;9675;51.538;6.728;2023-11-19T04:22:12;100496.91;;;11.44;100.00
19086;BME280;9675;51.538;6.728;2023-11-19T04:24:40;100503.69;;;11.42;100.00
19086;BME280;9675;51.538;6.728;2023-11-19T04:27:09;100499.34;;;11.41;100.00
19086;BME280;9675;51.538;6.728;2023-11-19T04:29:38;100506.16;;;11.39;100.00
19086;BME280;9675;51.538;6.728;2023-11-19T04:32:06;100503.44;;;11.36;100.00
19086;BME280;9675;51.538;6.728;2023-11-19T04:34:33;100518.78;;;11.33;100.00
19086;BME280;9675;51.538;6.728;2023-11-19T04:37:00;100498.16;;;11.33;100.00
19086;BME280;9675;51.538;6.728;2023-11-19T04:39:29;100499.06;;;11.34;100.00
19086;BME280;9675;51.538;6.728;2023-11-19T04:41:56;100491.25;;;11.32;100.00
19086;BME280;9675;51.538;6.728;2023-11-19T04:44:23;100498.97;;;11.32;100.00
19086;BME280;9675;51.538;6.728;2023-11-19T04:46:51;100499.78;;;11.31;100.00
19086;BME280;9675;51.538;6.728;2023-11-19T04:49:18;100508.41;;;11.32;100.00
19086;BME280;9675;51.538;6.728;2023-11-19T04:51:46;100510.09;;;11.31;100.00
19086;BME280;9675;51.538;6.728;2023-11-19T04:54:13;100515.16;;;11.28;100.00
19086;BME280;9675;51.538;6.728;2023-11-19T04:56:45;100522.06;;;11.29;100.00
19086;BME280;9675;51.538;6.728;2023-11-19T04:59:12;100525.56;;;11.31;100.00
19086;BME280;9675;51.538;6.728;2023-11-19T05:01:39;100525.56;;;11.31;100.00
19086;BME280;9675;51.538;6.728;2023-11-19T05:04:08;100516.06;;;11.30;100.00
19086;BME280;9675;51.538;6.728;2023-11-19T05:06:35;100506.59;;;11.29;100.00
19086;BME280;9675;51.538;6.728;2023-11-19T05:09:03;100506.59;;;11.29;100.00
19086;BME280;9675;51.538;6.728;2023-11-19T05:11:33;100524.66;;;11.29;100.00
19086;BME280;9675;51.538;6.728;2023-11-19T05:14:00;100519.50;;;11.29;100.00
19086;BME280;9675;51.538;6.728;2023-11-19T05:16:29;100521.19;;;11.29;100.00
19086;BME280;9675;51.538;6.728;2023-11-19T05:18:56;100515.16;;;11.28;100.00
19086;BME280;9675;51.538;6.728;2023-11-19T05:21:23;100518.53;;;11.27;100.00
19086;BME280;9675;51.538;6.728;2023-11-19T05:23:50;100506.47;;;11.26;100.00
19086;BME280;9675;51.538;6.728;2023-11-19T05:26:19;100509.19;;;11.29;100.00
19086;BME280;9675;51.538;6.728;2023-11-19T05:28:47;100510.88;;;11.29;100.00
19086;BME280;9675;51.538;6.728;2023-11-19T05:31:16;100520.31;;;11.28;100.00
19086;BME280;9675;51.538;6.728;2023-11-19T05:33:43;100506.47;;;11.26;100.00
19086;BME280;9675;51.538;6.728;2023-11-19T05:36:12;100517.66;;;11.27;100.00
19086;BME280;9675;51.538;6.728;2023-11-19T05:38:40;100509.03;;;11.26;100.00
19086;BME280;9675;51.538;6.728;2023-11-19T05:41:07;100513.25;;;11.24;100.00
19086;BME280;9675;51.538;6.728;2023-11-19T05:43:35;100508.97;;;11.25;100.00
19086;BME280;9675;51.538;6.728;2023-11-19T05:46:02;100505.53;;;11.24;100.00
19086;BME280;9675;51.538;6.728;2023-11-19T05:48:29;100514.97;;;11.24;100.00
19086;BME280;9675;51.538;6.728;2023-11-19T05:50:56;100518.41;;;11.24;100.00
19086;BME280;9675;51.538;6.728;2023-11-19T05:53:23;100523.56;;;11.24;100.00
19086;BME280;9675;51.538;6.728;2023-11-19T05:55:52;100516.50;;;11.20;100.00
19086;BME280;9675;51.538;6.728;2023-11-19T05:58:24;100507.91;;;11.20;100.00
19086;BME280;9675;51.538;6.728;2023-11-19T06:00:54;100511.34;;;11.20;100.00
19086;BME280;9675;51.538;6.728;2023-11-19T06:03:21;100510.47;;;11.20;100.00
19086;BME280;9675;51.538;6.728;2023-11-19T06:05:49;100503.69;;;11.22;100.00
19086;BME280;9675;51.538;6.728;2023-11-19T06:08:16;100501.81;;;11.18;100.00
19086;BME280;9675;51.538;6.728;2023-11-19T06:10:44;100494.97;;;11.18;100.00
19086;BME280;9675;51.538;6.728;2023-11-19T06:13:14;100516.41;;;11.17;100.00
19086;BME280;9675;51.538;6.728;2023-11-19T06:15:41;100505.09;;;11.14;100.00
19086;BME280;9675;51.538;6.728;2023-11-19T06:18:09;100497.28;;;11.12;100.00
19086;BME280;9675;51.538;6.728;2023-11-19T06:20:38;100504.13;;;11.12;100.00
19086;BME280;9675;51.538;6.728;2023-11-19T06:23:05;100504.06;;;11.10;100.00
19086;BME280;9675;51.538;6.728;2023-11-19T06:25:32;100517.75;;;11.09;100.00
19086;BME280;9675;51.538;6.728;2023-11-19T06:28:01;100516.00;;;11.08;100.00
19086;BME280;9675;51.538;6.728;2023-11-19T06:30:29;100515.13;;;11.07;100.00
19086;BME280;9675;51.538;6.728;2023-11-19T06:32:58;100523.66;;;11.06;100.00
19086;BME280;9675;51.538;6.728;2023-11-19T06:35:25;100533.16;;;11.07;100.00
19086;BME280;9675;51.538;6.728;2023-11-19T06:37:52;100531.31;;;11.05;100.00
19086;BME280;9675;51.538;6.728;2023-11-19T06:40:19;100528.72;;;11.03;100.00
19086;BME280;9675;51.538;6.728;2023-11-19T06:42:46;100518.44;;;11.05;100.00
19086;BME280;9675;51.538;6.728;2023-11-19T06:45:13;100532.97;;;11.03;100.00
19086;BME280;9675;51.538;6.728;2023-11-19T06:47:41;100539.75;;;11.01;100.00
19086;BME280;9675;51.538;6.728;2023-11-19T06:50:09;100536.22;;;10.99;100.00
19086;BME280;9675;51.538;6.728;2023-11-19T06:52:38;100556.03;;;11.00;100.00
19086;BME280;9675;51.538;6.728;2023-11-19T06:55:06;100547.41;;;10.99;100.00
19086;BME280;9675;51.538;6.728;2023-11-19T06:57:33;100546.41;;;10.96;100.00
19086;BME280;9675;51.538;6.728;2023-11-19T07:00:01;100553.31;;;10.97;100.00
19086;BME280;9675;51.538;6.728;2023-11-19T07:02:28;100548.03;;;10.94;100.00
19086;BME280;9675;51.538;6.728;2023-11-19T07:04:57;100542.88;;;10.94;100.00
19086;BME280;9675;51.538;6.728;2023-11-19T07:07:25;100543.75;;;10.94;100.00
19086;BME280;9675;51.538;6.728;2023-11-19T07:09:53;100541.78;;;10.89;100.00
19086;BME280;9675;51.538;6.728;2023-11-19T07:12:20;100560.84;;;10.92;100.00
19086;BME280;9675;51.538;6.728;2023-11-19T07:14:47;100556.59;;;10.93;100.00
19086;BME280;9675;51.538;6.728;2023-11-19T07:17:14;100561.75;;;10.93;100.00
19086;BME280;9675;51.538;6.728;2023-11-19T07:19:41;100566.88;;;10.93;100.00
19086;BME280;9675;51.538;6.728;2023-11-19T07:22:08;100575.44;;;10.92;100.00
19086;BME280;9675;51.538;6.728;2023-11-19T07:24:39;100573.59;;;10.89;100.00
19086;BME280;9675;51.538;6.728;2023-11-19T07:27:07;100583.84;;;10.88;100.00
19086;BME280;9675;51.538;6.728;2023-11-19T07:29:34;100585.47;;;10.86;100.00
19086;BME280;9675;51.538;6.728;2023-11-19T07:32:02;100595.75;;;10.86;100.00
19086;BME280;9675;51.538;6.728;2023-11-19T07:34:29;100597.38;;;10.84;100.00
19086;BME280;9675;51.538;6.728;2023-11-19T07:36:56;100599.03;;;10.82;100.00
19086;BME280;9675;51.538;6.728;2023-11-19T07:39:26;100590.50;;;10.83;100.00
19086;BME280;9675;51.538;6.728;2023-11-19T07:41:53;100593.88;;;10.82;100.00
19086;BME280;9675;51.538;6.728;2023-11-19T07:44:20;100602.41;;;10.81;100.00
19086;BME280;9675;51.538;6.728;2023-11-19T07:46:48;100606.66;;;10.80;100.00
19086;BME280;9675;51.538;6.728;2023-11-19T07:49:15;100601.53;;;10.80;100.00
19086;BME280;9675;51.538;6.728;2023-11-19T07:51:42;100611.94;;;10.83;100.00
19086;BME280;9675;51.538;6.728;2023-11-19T07:54:09;100601.72;;;10.85;100.00
19086;BME280;9675;51.538;6.728;2023-11-19T07:56:37;100610.34;;;10.85;100.00
19086;BME280;9675;51.538;6.728;2023-11-19T07:59:04;100615.41;;;10.84;100.00
19086;BME280;9675;51.538;6.728;2023-11-19T08:01:32;100627.47;;;10.85;100.00
19086;BME280;9675;51.538;6.728;2023-11-19T08:03:59;100623.22;;;10.85;100.00
19086;BME280;9675;51.538;6.728;2023-11-19T08:06:27;100621.41;;;10.83;100.00
19086;BME280;9675;51.538;6.728;2023-11-19T08:08:54;100621.44;;;10.84;100.00
19086;BME280;9675;51.538;6.728;2023-11-19T08:11:21;100620.56;;;10.84;100.00
19086;BME280;9675;51.538;6.728;2023-11-19T08:13:50;100615.41;;;10.84;100.00
19086;BME280;9675;51.538;6.728;2023-11-19T08:16:17;100627.47;;;10.85;100.00
19086;BME280;9675;51.538;6.728;2023-11-19T08:18:44;100628.28;;;10.84;100.00
19086;BME280;9675;51.538;6.728;2023-11-19T08:21:11;100635.22;;;10.85;100.00
19086;BME280;9675;51.538;6.728;2023-11-19T08:23:39;100636.09;;;10.85;100.00
19086;BME280;9675;51.538;6.728;2023-11-19T08:26:06;100636.16;;;10.87;100.00
19086;BME280;9675;51.538;6.728;2023-11-19T08:28:34;100628.44;;;10.87;100.00
19086;BME280;9675;51.538;6.728;2023-11-19T08:31:04;100640.50;;;10.88;100.00
19086;BME280;9675;51.538;6.728;2023-11-19T08:33:31;100634.53;;;10.89;100.00
19086;BME280;9675;51.538;6.728;2023-11-19T08:35:58;100637.94;;;10.88;100.00
19086;BME280;9675;51.538;6.728;2023-11-19T08:38:26;100632.91;;;10.91;100.00
19086;BME280;9675;51.538;6.728;2023-11-19T08:40:53;100632.03;;;10.90;100.00
19086;BME280;9675;51.538;6.728;2023-11-19T08:43:25;100634.69;;;10.92;100.00
19086;BME280;9675;51.538;6.728;2023-11-19T08:45:52;100639.03;;;10.93;100.00
19086;BME280;9675;51.538;6.728;2023-11-19T08:48:20;100631.41;;;10.96;100.00
19086;BME280;9675;51.538;6.728;2023-11-19T08:50:47;100631.50;;;10.97;100.00
19086;BME280;9675;51.538;6.728;2023-11-19T08:53:14;100634.97;;;10.98;100.00
19086;BME280;9675;51.538;6.728;2023-11-19T08:55:41;100642.81;;;11.01;100.00
19086;BME280;9675;51.538;6.728;2023-11-19T08:58:08;100635.97;;;11.01;100.00
19086;BME280;9675;51.538;6.728;2023-11-19T09:00:35;100638.53;;;11.01;100.00
19086;BME280;9675;51.538;6.728;2023-11-19T09:03:03;100645.50;;;11.04;100.00
19086;BME280;9675;51.538;6.728;2023-11-19T09:05:31;100648.09;;;11.04;100.00
19086;BME280;9675;51.538;6.728;2023-11-19T09:07:58;100637.84;;;11.05;100.00
19086;BME280;9675;51.538;6.728;2023-11-19T09:10:25;100644.84;;;11.08;100.00
19086;BME280;9675;51.538;6.728;2023-11-19T09:12:52;100639.81;;;11.11;100.00
19086;BME280;9675;51.538;6.728;2023-11-19T09:15:19;100636.50;;;11.14;100.00
19086;BME280;9675;51.538;6.728;2023-11-19T09:17:46;100644.38;;;11.17;100.00
19086;BME280;9675;51.538;6.728;2023-11-19T09:20:14;100633.28;;;11.19;100.00
19086;BME280;9675;51.538;6.728;2023-11-19T09:22:42;100629.25;;;11.24;100.00
19086;BME280;9675;51.538;6.728;2023-11-19T09:25:09;100630.19;;;11.26;100.00
19086;BME280;9675;51.538;6.728;2023-11-19T09:27:36;100629.28;;;11.26;100.00
19086;BME280;9675;51.538;6.728;2023-11-19T09:30:05;100630.19;;;11.26;100.00
19086;BME280;9675;51.538;6.728;2023-11-19T09:32:33;100628.41;;;11.25;100.00
19086;BME280;9675;51.538;6.728;2023-11-19T09:35:00;100626.91;;;11.30;100.00
19086;BME280;9675;51.538;6.728;2023-11-19T09:37:28;100621.91;;;11.33;100.00
19086;BME280;9675;51.538;6.728;2023-11-19T09:39:56;100635.72;;;11.35;100.00
19086;BME280;9675;51.538;6.728;2023-11-19T09:42:24;100634.09;;;11.37;100.00
19086;BME280;9675;51.538;6.728;2023-11-19T09:44:55;100636.78;;;11.40;100.00
19086;BME280;9675;51.538;6.728;2023-11-19T09:47:25;100635.25;;;11.44;100.00
19086;BME280;9675;51.538;6.728;2023-11-19T09:49:54;100628.44;;;11.46;100.00
19086;BME280;9675;51.538;6.728;2023-11-19T09:52:21;100629.41;;;11.48;100.00
19086;BME280;9675;51.538;6.728;2023-11-19T09:54:48;100624.34;;;11.51;100.00
19086;BME280;9675;51.538;6.728;2023-11-19T09:57:17;100629.69;;;11.56;100.00
19086;BME280;9675;51.538;6.728;2023-11-19T09:59:46;100631.63;;;11.60;100.00
19086;BME280;9675;51.538;6.728;2023-11-19T10:02:14;100628.34;;;11.64;100.00
19086;BME280;9675;51.538;6.728;2023-11-19T10:04:43;100637.03;;;11.66;100.00
19086;BME280;9675;51.538;6.728;2023-11-19T10:07:13;100632.88;;;11.69;100.00
19086;BME280;9675;51.538;6.728;2023-11-19T10:09:40;100642.59;;;11.75;100.00
19086;BME280;9675;51.538;6.728;2023-11-19T10:12:07;100624.59;;;11.76;100.00
19086;BME280;9675;51.538;6.728;2023-11-19T10:14:39;100627.31;;;11.79;100.00
19086;BME280;9675;51.538;6.728;2023-11-19T10:17:07;100620.56;;;11.83;100.00
19086;BME280;9675;51.538;6.728;2023-11-19T10:19:34;100625.88;;;11.86;100.00
19086;BME280;9675;51.538;6.728;2023-11-19T10:22:04;100618.25;;;11.89;100.00
19086;BME280;9675;51.538;6.728;2023-11-19T10:24:33;100626.09;;;11.92;100.00
19086;BME280;9675;51.538;6.728;2023-11-19T10:27:00;100617.53;;;11.93;100.00
19086;BME280;9675;51.538;6.728;2023-11-19T10:29:29;100615.09;;;11.96;100.00
19086;BME280;9675;51.538;6.728;2023-11-19T10:31:59;100621.19;;;11.98;100.00
19086;BME280;9675;51.538;6.728;2023-11-19T10:34:27;100611.88;;;12.02;100.00
19086;BME280;9675;51.538;6.728;2023-11-19T10:36:55;100623.94;;;12.03;100.00
19086;BME280;9675;51.538;6.728;2023-11-19T10:39:22;100604.31;;;12.06;100.00
19086;BME280;9675;51.538;6.728;2023-11-19T10:41:50;100603.44;;;12.06;100.00
19086;BME280;9675;51.538;6.728;2023-11-19T10:44:32;100600.22;;;12.11;100.00
19086;BME280;9675;51.538;6.728;2023-11-19T10:47:08;100618.31;;;12.13;100.00
19086;BME280;9675;51.538;6.728;2023-11-19T10:49:35;100609.78;;;12.14;100.00
19086;BME280;9675;51.538;6.728;2023-11-19T10:52:05;100600.41;;;12.16;100.00
19086;BME280;9675;51.538;6.728;2023-11-19T10:54:36;100600.50;;;12.19;100.00
19086;BME280;9675;51.538;6.728;2023-11-19T10:57:07;100610.09;;;12.21;100.00
19086;BME280;9675;51.538;6.728;2023-11-19T10:59:38;100604.09;;;12.22;100.00
19086;BME280;9675;51.538;6.728;2023-11-19T11:02:14;100588.63;;;12.22;100.00
19086;BME280;9675;51.538;6.728;2023-11-19T11:04:47;100600.69;;;12.23;100.00
19086;BME280;9675;51.538;6.728;2023-11-19T11:07:18;100597.28;;;12.24;100.00
19086;BME280;9675;51.538;6.728;2023-11-19T11:09:48;100599.88;;;12.24;100.00
19086;BME280;9675;51.538;6.728;2023-11-19T11:12:21;100601.63;;;12.25;100.00
19086;BME280;9675;51.538;6.728;2023-11-19T11:14:49;100597.41;;;12.27;100.00
19086;BME280;9675;51.538;6.728;2023-11-19T11:17:24;100594.94;;;12.30;100.00
19086;BME280;9675;51.538;6.728;2023-11-19T11:19:54;100587.13;;;12.29;100.00
19086;BME280;9675;51.538;6.728;2023-11-19T11:22:23;100594.94;;;12.30;100.00
19086;BME280;9675;51.538;6.728;2023-11-19T11:25:16;100598.47;;;12.32;100.00
19086;BME280;9675;51.538;6.728;2023-11-19T11:28:08;100591.63;;;12.33;100.00
19086;BME280;9675;51.538;6.728;2023-11-19T11:30:55;100579.75;;;12.38;100.00
19086;BME280;9675;51.538;6.728;2023-11-19T11:33:54;100581.63;;;12.42;100.00
19086;BME280;9675;51.538;6.728;2023-11-19T11:36:27;100579.94;;;12.43;100.00
19086;BME280;9675;51.538;6.728;2023-11-19T11:38:59;100583.56;;;12.48;100.00
19086;BME280;9675;51.538;6.728;2023-11-19T11:41:27;100578.41;;;12.48;100.00
19086;BME280;9675;51.538;6.728;2023-11-19T11:43:55;100570.75;;;12.51;100.00
19086;BME280;9675;51.538;6.728;2023-11-19T11:46:56;100557.97;;;12.54;100.00
19086;BME280;9675;51.538;6.728;2023-11-19T11:49:29;100562.34;;;12.56;100.00
19086;BME280;9675;51.538;6.728;2023-11-19T11:52:04;100565.16;;;12.62;100.00
19086;BME280;9675;51.538;6.728;2023-11-19T11:54:32;100563.56;;;12.66;100.00
19086;BME280;9675;51.538;6.728;2023-11-19T11:57:11;100551.38;;;12.62;100.00
19086;BME280;9675;51.538;6.728;2023-11-19T11:59:51;100562.03;;;12.71;100.00
19086;BME280;9675;51.538;6.728;2023-11-19T12:02:20;100554.41;;;12.74;100.00
19086;BME280;9675;51.538;6.728;2023-11-19T12:04:51;100560.50;;;12.76;100.00
19086;BME280;9675;51.538;6.728;2023-11-19T12:07:21;100557.09;;;12.77;100.00
19086;BME280;9675;51.538;6.728;2023-11-19T12:09:52;100563.31;;;12.82;100.00
19086;BME280;9675;51.538;6.728;2023-11-19T12:12:27;100560.81;;;12.85;100.00
19086;BME280;9675;51.538;6.728;2023-11-19T12:15:07;100552.38;;;12.89;100.00
19086;BME280;9675;51.538;6.728;2023-11-19T12:17:41;100547.19;;;12.89;100.00
19086;BME280;9675;51.538;6.728;2023-11-19T12:20:12;100542.94;;;12.91;100.00
19086;BME280;9675;51.538;6.728;2023-11-19T12:22:41;100519.66;;;12.90;100.00
19086;BME280;9675;51.538;6.728;2023-11-19T12:25:10;100539.66;;;12.95;100.00
19086;BME280;9675;51.538;6.728;2023-11-19T12:27:40;100532.81;;;12.97;100.00
19086;BME280;9675;51.538;6.728;2023-11-19T12:30:08;100542.34;;;12.98;100.00
19086;BME280;9675;51.538;6.728;2023-11-19T12:32:40;100534.59;;;12.98;100.00
19086;BME280;9675;51.538;6.728;2023-11-19T12:35:08;100533.78;;;12.99;100.00
19086;BME280;9675;51.538;6.728;2023-11-19T12:37:46;100536.34;;;12.99;100.00
19086;BME280;9675;51.538;6.728;2023-11-19T12:40:18;100535.41;;;12.97;100.00
19086;BME280;9675;51.538;6.728;2023-11-19T12:42:46;100527.56;;;12.94;100.00
19086;BME280;9675;51.538;6.728;2023-11-19T12:45:14;100531.78;;;12.92;100.00
19086;BME280;9675;51.538;6.728;2023-11-19T12:47:43;100542.03;;;12.89;100.00
19086;BME280;9675;51.538;6.728;2023-11-19T12:50:11;100545.44;;;12.88;100.00
19086;BME280;9675;51.538;6.728;2023-11-19T12:52:38;100545.31;;;12.85;100.00
19086;BME280;9675;51.538;6.728;2023-11-19T12:55:26;100537.56;;;12.85;100.00
19086;BME280;9675;51.538;6.728;2023-11-19T12:57:54;100541.09;;;12.87;100.00
19086;BME280;9675;51.538;6.728;2023-11-19T13:00:24;100542.03;;;12.89;100.00